Time;durP1;ratioP1;P1;durP2;ratioP2;P2;SDS_P1;SDS_P2;PMS_P1;PMS_P2;Temp;Humidity;BMP_temperature;BMP_pressure;BME280_temperature;BME280_humidity;BME280_pressure;Samples;Min_cycle;Max_cycle;Signal;HPM_P1;HPM_P2
2022/11/18 00:01:17;;;;;;;22.55;12.40;;;7.80;99.90;;;;;;5051489;28;20074;-67
2022/11/18 00:03:43;;;;;;;23.25;13.15;;;7.70;99.90;;;;;;5051502;28;20060;-67
2022/11/18 00:06:17;;;;;;;23.67;13.63;;;7.70;99.90;;;;;;5051567;28;20041;-67
2022/11/18 00:08:43;;;;;;;19.33;12.18;;;7.70;99.90;;;;;;5051447;28;20440;-67
2022/11/18 00:11:12;;;;;;;24.85;14.35;;;7.70;99.90;;;;;;5051575;28;20037;-67
2022/11/18 00:16:21;;;;;;;28.60;14.77;;;7.70;99.90;;;;;;5051168;28;20041;-67
2022/11/18 00:18:47;;;;;;;26.73;14.43;;;7.70;99.90;;;;;;5051154;28;20052;-67
2022/11/18 00:21:13;;;;;;;25.98;14.10;;;7.70;99.90;;;;;;5050776;28;20069;-67
2022/11/18 00:23:39;;;;;;;24.83;14.73;;;7.70;99.90;;;;;;5050979;28;20049;-67
2022/11/18 00:26:07;;;;;;;25.77;13.93;;;7.80;99.90;;;;;;5051160;28;20033;-67
2022/11/18 00:28:32;;;;;;;25.17;15.07;;;7.80;99.90;;;;;;5050785;28;20032;-67
2022/11/18 00:31:09;;;;;;;25.30;14.57;;;7.80;99.90;;;;;;5051377;28;20056;-67
2022/11/18 00:33:38;;;;;;;26.85;13.48;;;7.80;99.90;;;;;;5050765;28;20040;-67
2022/11/18 00:36:06;;;;;;;27.52;14.40;;;7.80;99.90;;;;;;5051082;28;20468;-67
2022/11/18 00:38:32;;;;;;;27.90;15.65;;;7.80;99.90;;;;;;5050841;28;20060;-67
2022/11/18 00:41:02;;;;;;;28.65;15.73;;;7.80;99.90;;;;;;5051118;28;20497;-67
2022/11/18 00:43:29;;;;;;;28.13;14.63;;;7.80;99.90;;;;;;5050632;28;20037;-67
2022/11/18 00:45:55;;;;;;;26.58;15.07;;;7.80;99.90;;;;;;5050542;28;20482;-67
2022/11/18 00:48:21;;;;;;;25.15;15.60;;;7.80;99.90;;;;;;5050819;28;20041;-67
2022/11/18 00:50:56;;;;;;;30.00;15.93;;;7.80;99.90;;;;;;5051145;28;20397;-67
2022/11/18 00:53:23;;;;;;;27.38;14.75;;;7.80;99.90;;;;;;5050606;28;20029;-67
2022/11/18 00:55:49;;;;;;;27.13;15.07;;;7.80;99.90;;;;;;5050608;28;20045;-67
2022/11/18 00:58:15;;;;;;;31.02;15.65;;;7.80;99.90;;;;;;5050609;28;20170;-67
2022/11/18 01:00:42;;;;;;;28.90;15.55;;;7.90;99.90;;;;;;5050808;28;20495;-66
2022/11/18 01:03:10;;;;;;;29.45;15.35;;;7.80;99.90;;;;;;5049117;28;20047;-67
2022/11/18 01:05:36;;;;;;;26.70;15.63;;;7.80;99.90;;;;;;5048928;28;20567;-67
2022/11/18 01:08:02;;;;;;;28.05;15.23;;;7.70;99.90;;;;;;5050873;28;20041;-68
2022/11/18 01:10:28;;;;;;;31.65;16.65;;;7.70;99.90;;;;;;5050501;28;20037;-67
2022/11/18 01:15:43;;;;;;;29.05;15.10;;;7.80;99.90;;;;;;5050225;28;20049;-66
2022/11/18 01:18:09;;;;;;;29.23;15.85;;;7.80;99.90;;;;;;5050528;28;20763;-67
2022/11/18 01:20:35;;;;;;;27.20;15.15;;;7.80;99.90;;;;;;5050586;28;20167;-67
2022/11/18 01:23:00;;;;;;;29.65;16.17;;;7.70;99.90;;;;;;5050566;28;20065;-66
2022/11/18 01:25:27;;;;;;;28.40;15.85;;;7.70;99.90;;;;;;5050015;28;20126;-67
2022/11/18 01:27:53;;;;;;;27.73;14.80;;;7.70;99.90;;;;;;5050263;28;20073;-67
2022/11/18 01:30:19;;;;;;;32.97;15.95;;;7.80;99.90;;;;;;5050646;28;20079;-67
2022/11/18 01:32:44;;;;;;;33.95;17.00;;;7.80;99.90;;;;;;5050109;28;20037;-66
2022/11/18 01:35:10;;;;;;;33.05;16.23;;;7.80;99.90;;;;;;5050408;28;20041;-67
2022/11/18 01:37:37;;;;;;;31.63;15.48;;;7.80;99.90;;;;;;5050395;28;20134;-67
2022/11/18 01:40:04;;;;;;;32.85;16.67;;;7.70;99.90;;;;;;5050683;28;20401;-67
2022/11/18 01:42:30;;;;;;;32.85;17.02;;;7.80;99.90;;;;;;5052671;28;20079;-67
2022/11/18 01:45:00;;;;;;;36.35;17.15;;;7.90;99.90;;;;;;5054025;28;20126;-66
2022/11/18 01:47:30;;;;;;;33.25;15.82;;;7.90;99.90;;;;;;5054111;28;20433;-66
2022/11/18 01:49:58;;;;;;;33.38;17.10;;;7.70;99.90;;;;;;5054341;28;20036;-66
2022/11/18 01:52:24;;;;;;;30.35;16.25;;;7.80;99.90;;;;;;5053960;28;20044;-66
2022/11/18 01:54:56;;;;;;;32.00;16.23;;;7.80;99.90;;;;;;5053978;28;20037;-66
2022/11/18 01:57:24;;;;;;;31.30;16.58;;;7.80;99.90;;;;;;5054026;28;20490;-67
2022/11/18 01:59:55;;;;;;;30.17;16.20;;;7.80;99.90;;;;;;5052348;28;20053;-67
2022/11/18 02:02:21;;;;;;;31.75;16.33;;;7.80;99.90;;;;;;5053905;28;20037;-67
2022/11/18 02:04:49;;;;;;;32.58;17.35;;;7.80;99.90;;;;;;5053390;28;20452;-67
2022/11/18 02:07:16;;;;;;;34.35;16.75;;;7.90;99.90;;;;;;5053997;28;20052;-67
2022/11/18 02:09:42;;;;;;;27.35;16.10;;;7.70;99.90;;;;;;5053919;28;20051;-67
2022/11/18 02:12:08;;;;;;;32.95;16.25;;;7.80;99.90;;;;;;5053792;28;20044;-67
2022/11/18 02:14:38;;;;;;;26.77;14.95;;;7.80;99.90;;;;;;5053533;28;20041;-67
2022/11/18 02:17:09;;;;;;;28.38;16.00;;;7.80;99.90;;;;;;5052367;28;20052;-67
2022/11/18 02:19:46;;;;;;;28.73;15.00;;;7.80;99.90;;;;;;5053631;28;20091;-66
2022/11/18 02:22:45;;;;;;;30.35;15.35;;;7.80;99.90;;;;;;5053593;28;20047;-67
2022/11/18 02:25:23;;;;;;;27.40;16.20;;;7.70;99.90;;;;;;5053077;28;20048;-67
2022/11/18 02:28:07;;;;;;;29.73;17.00;;;7.70;99.90;;;;;;5052014;28;20047;-67
2022/11/18 02:30:43;;;;;;;29.65;15.25;;;7.80;99.90;;;;;;5051857;28;20037;-67
2022/11/18 02:33:16;;;;;;;28.52;15.20;;;7.70;99.90;;;;;;5053432;28;20405;-67
2022/11/18 02:35:46;;;;;;;28.90;15.07;;;7.70;99.90;;;;;;5053141;28;20033;-66
2022/11/18 02:38:28;;;;;;;30.85;15.63;;;7.80;99.90;;;;;;5052246;28;20029;-67
2022/11/18 02:40:58;;;;;;;32.38;16.25;;;7.70;99.90;;;;;;5053250;28;20048;-67
2022/11/18 02:43:29;;;;;;;30.80;14.55;;;7.80;99.90;;;;;;5051677;28;20144;-67
2022/11/18 02:46:00;;;;;;;32.70;15.73;;;7.70;99.90;;;;;;5051610;28;20029;-67
2022/11/18 02:48:29;;;;;;;29.88;15.50;;;7.70;99.90;;;;;;5053061;28;20052;-67
2022/11/18 02:50:56;;;;;;;29.35;16.30;;;7.70;99.90;;;;;;5052993;28;20044;-66
2022/11/18 02:53:24;;;;;;;31.83;15.82;;;7.70;99.90;;;;;;5052270;28;20040;-66
2022/11/18 02:55:51;;;;;;;27.27;14.68;;;7.80;99.90;;;;;;5052714;28;20040;-66
2022/11/18 02:58:19;;;;;;;29.65;16.40;;;7.80;99.90;;;;;;5052700;28;20051;-67
2022/11/18 03:00:55;;;;;;;32.75;16.05;;;7.70;99.90;;;;;;5052814;28;20087;-67
2022/11/18 03:03:32;;;;;;;28.98;15.18;;;7.80;99.90;;;;;;5052757;28;20037;-67
2022/11/18 03:06:18;;;;;;;29.90;15.95;;;7.70;99.90;;;;;;5052726;28;20033;-67
2022/11/18 03:09:15;;;;;;;32.55;15.38;;;7.70;99.90;;;;;;5052766;28;20128;-67
2022/11/18 03:11:57;;;;;;;34.33;14.82;;;7.70;99.90;;;;;;5051040;28;20072;-66
2022/11/18 03:14:41;;;;;;;30.85;15.15;;;7.70;99.90;;;;;;5052200;28;20049;-66
2022/11/18 03:17:12;;;;;;;25.75;14.98;;;7.70;99.90;;;;;;5052642;28;20056;-67
2022/11/18 03:19:57;;;;;;;25.55;15.45;;;7.60;99.90;;;;;;5052393;28;20132;-67
2022/11/18 03:22:30;;;;;;;26.80;13.95;;;7.70;99.90;;;;;;5052257;28;20036;-67
2022/11/18 03:25:10;;;;;;;27.33;13.65;;;7.70;99.90;;;;;;5051768;28;20556;-67
2022/11/18 03:27:48;;;;;;;29.48;15.65;;;7.60;99.90;;;;;;5051073;28;20056;-67
2022/11/18 03:30:17;;;;;;;30.42;15.15;;;7.70;99.90;;;;;;5050882;28;20079;-66
2022/11/18 03:32:50;;;;;;;33.20;15.05;;;7.70;99.90;;;;;;5052047;28;20551;-67
2022/11/18 03:35:21;;;;;;;33.30;16.25;;;7.70;99.90;;;;;;5051995;28;20049;-67
2022/11/18 03:37:51;;;;;;;27.52;15.38;;;7.70;99.90;;;;;;5052100;28;20041;-67
2022/11/18 03:40:20;;;;;;;27.80;14.70;;;7.70;99.90;;;;;;5052000;28;20079;-67
2022/11/18 03:42:51;;;;;;;33.72;15.05;;;7.70;99.90;;;;;;5051868;28;20409;-67
2022/11/18 03:45:37;;;;;;;24.98;15.10;;;7.70;99.90;;;;;;5051752;28;20051;-67
2022/11/18 03:48:14;;;;;;;31.70;15.13;;;7.70;99.90;;;;;;5051862;28;20044;-67
2022/11/18 03:50:49;;;;;;;26.00;14.50;;;7.70;99.90;;;;;;5033670;28;20037;-67
2022/11/18 03:53:18;;;;;;;28.42;14.75;;;7.70;99.90;;;;;;5051967;28;20398;-67
2022/11/18 03:55:49;;;;;;;27.75;14.93;;;7.70;99.90;;;;;;5051809;28;20071;-67
2022/11/18 03:58:29;;;;;;;25.98;14.27;;;7.70;99.90;;;;;;5051687;28;20033;-67
2022/11/18 04:01:01;;;;;;;28.73;14.98;;;7.60;99.90;;;;;;5050434;28;20049;-66
2022/11/18 04:03:27;;;;;;;;;;;7.60;99.90;;;;;;5051589;28;20064;-67
2022/11/18 04:06:03;;;;;;;26.27;13.65;;;7.60;99.90;;;;;;5051350;28;20304;-66
2022/11/18 04:08:35;;;;;;;26.90;15.35;;;7.60;99.90;;;;;;5051500;28;20124;-67
2022/11/18 04:12:01;;;;;;;32.40;15.97;;;7.70;99.90;;;;;;5051684;28;20044;-67
2022/11/18 04:13:58;;;;;;;30.38;14.57;;;7.60;99.90;;;;;;5050920;28;20421;-67
2022/11/18 04:16:24;;;;;;;31.92;15.80;;;7.60;99.90;;;;;;5051529;28;20048;-67
2022/11/18 04:18:49;;;;;;;31.73;14.77;;;7.70;99.90;;;;;;5051337;28;20498;-67
2022/11/18 04:21:15;;;;;;;28.52;14.35;;;7.70;99.90;;;;;;5050324;28;20508;-67
2022/11/18 04:23:40;;;;;;;26.45;15.55;;;7.70;99.90;;;;;;5050904;28;20055;-67
2022/11/18 04:26:06;;;;;;;32.10;15.48;;;7.70;99.90;;;;;;5050998;28;20043;-67
2022/11/18 04:28:31;;;;;;;30.50;16.20;;;7.70;99.90;;;;;;5051429;28;20083;-66
2022/11/18 04:30:57;;;;;;;28.90;15.05;;;7.70;99.90;;;;;;5051381;28;20071;-66
2022/11/18 04:33:22;;;;;;;26.90;14.98;;;7.70;99.90;;;;;;5051189;28;20456;-66
2022/11/18 04:35:48;;;;;;;28.73;14.52;;;7.70;99.90;;;;;;5051015;28;20044;-66
2022/11/18 04:38:13;;;;;;;28.23;15.00;;;7.60;99.90;;;;;;5051168;28;20047;-66
2022/11/18 04:40:39;;;;;;;33.33;15.82;;;7.70;99.90;;;;;;5050792;28;20124;-66
2022/11/18 04:43:04;;;;;;;29.17;15.85;;;7.70;99.90;;;;;;5049761;28;20045;-66
2022/11/18 04:45:30;;;;;;;24.92;14.50;;;7.70;99.90;;;;;;5050436;28;20041;-67
2022/11/18 04:47:55;;;;;;;25.52;13.98;;;7.60;99.90;;;;;;5050976;28;20429;-67
2022/11/18 04:50:21;;;;;;;31.35;15.43;;;7.70;99.90;;;;;;5050995;28;20036;-67
2022/11/18 04:52:46;;;;;;;27.33;14.77;;;7.60;99.90;;;;;;5050734;28;20429;-67
2022/11/18 04:55:12;;;;;;;26.10;14.45;;;7.70;99.90;;;;;;5049311;28;20036;-66
2022/11/18 04:57:37;;;;;;;31.30;15.18;;;7.70;99.90;;;;;;5050800;28;20555;-67
2022/11/18 05:00:03;;;;;;;31.38;14.68;;;7.70;99.90;;;;;;5051057;28;20631;-67
2022/11/18 05:02:29;;;;;;;24.20;13.27;;;7.70;99.90;;;;;;5050354;28;20060;-67
2022/11/18 05:04:55;;;;;;;28.60;14.35;;;7.60;99.90;;;;;;5049064;28;20037;-66
2022/11/18 05:07:20;;;;;;;32.28;15.73;;;7.60;99.90;;;;;;5050474;28;20043;-66
2022/11/18 05:09:46;;;;;;;27.65;14.10;;;7.60;99.90;;;;;;5050642;28;20209;-66
2022/11/18 05:14:57;;;;;;;26.25;14.93;;;7.60;99.90;;;;;;5051094;28;20048;-67
2022/11/18 05:17:23;;;;;;;26.88;13.75;;;7.60;99.90;;;;;;5054839;28;20119;-66
2022/11/18 05:19:48;;;;;;;25.60;13.63;;;7.60;99.90;;;;;;5054688;28;20199;-66
2022/11/18 05:22:14;;;;;;;28.63;14.77;;;7.60;99.90;;;;;;5054517;28;20045;-67
2022/11/18 05:24:40;;;;;;;27.95;15.63;;;7.50;99.90;;;;;;5053170;28;20037;-66
2022/11/18 05:27:05;;;;;;;31.92;16.00;;;7.60;99.90;;;;;;5054744;28;20048;-66
2022/11/18 05:29:32;;;;;;;34.03;15.60;;;7.60;99.90;;;;;;5054263;28;20036;-66
2022/11/18 05:31:58;;;;;;;30.10;15.57;;;7.60;99.90;;;;;;5054486;28;20040;-66
2022/11/18 05:34:24;;;;;;;25.75;14.57;;;7.70;99.90;;;;;;5053952;28;20060;-66
2022/11/18 05:36:49;;;;;;;27.15;14.27;;;7.60;99.90;;;;;;5054295;28;20081;-66
2022/11/18 05:39:15;;;;;;;25.83;14.05;;;7.60;99.90;;;;;;5054372;28;20520;-67
2022/11/18 05:44:25;;;;;;;32.92;14.73;;;7.60;99.90;;;;;;5054135;28;20422;-66
2022/11/18 05:46:50;;;;;;;28.65;14.95;;;7.50;99.90;;;;;;5054282;28;20033;-66
2022/11/18 05:49:16;;;;;;;28.95;14.93;;;7.60;99.90;;;;;;5052978;28;20444;-66
2022/11/18 05:51:41;;;;;;;28.30;13.68;;;7.50;99.90;;;;;;5053804;28;20025;-66
2022/11/18 05:54:09;;;;;;;28.17;13.80;;;7.50;99.90;;;;;;5052411;28;20045;-66
2022/11/18 05:56:40;;;;;;;28.83;14.40;;;7.40;99.90;;;;;;5053868;28;20037;-66
2022/11/18 05:59:06;;;;;;;30.80;15.43;;;7.50;99.90;;;;;;5053906;28;20440;-66
2022/11/18 06:01:40;;;;;;;28.25;14.77;;;7.50;99.90;;;;;;5053703;28;20040;-66
2022/11/18 06:04:19;;;;;;;30.90;15.27;;;7.50;99.90;;;;;;5053471;28;20041;-66
2022/11/18 06:06:48;;;;;;;26.73;14.73;;;7.50;99.90;;;;;;5053874;28;20055;-66
2022/11/18 06:09:17;;;;;;;26.40;14.57;;;7.40;99.90;;;;;;5053782;28;20048;-66
2022/11/18 06:11:48;;;;;;;31.38;15.57;;;7.50;99.90;;;;;;5053778;28;20041;-66
2022/11/18 06:14:20;;;;;;;28.00;14.57;;;7.40;99.90;;;;;;5053477;28;20041;-67
2022/11/18 06:16:50;;;;;;;26.05;14.40;;;7.30;99.90;;;;;;5053617;28;20049;-67
2022/11/18 06:19:16;;;;;;;31.52;15.00;;;7.40;99.90;;;;;;5053898;28;20052;-68
2022/11/18 06:21:43;;;;;;;31.70;13.57;;;7.30;99.90;;;;;;5053600;28;20036;-68
2022/11/18 06:24:09;;;;;;;25.15;13.48;;;7.40;99.90;;;;;;5053068;28;20048;-68
2022/11/18 06:26:36;;;;;;;26.45;14.00;;;7.30;99.90;;;;;;5053085;28;20034;-67
2022/11/18 06:29:03;;;;;;;25.65;13.15;;;7.40;99.90;;;;;;5053170;28;20505;-67
2022/11/18 06:31:28;;;;;;;30.58;13.95;;;7.40;99.90;;;;;;5053232;28;20763;-67
2022/11/18 06:33:54;;;;;;;28.05;13.63;;;7.30;99.90;;;;;;5053037;28;20047;-67
2022/11/18 06:36:19;;;;;;;30.05;14.82;;;7.40;99.90;;;;;;5051987;28;20041;-67
2022/11/18 06:38:45;;;;;;;32.13;14.85;;;7.30;99.90;;;;;;5053085;28;20045;-68
2022/11/18 06:41:10;;;;;;;31.33;15.82;;;7.30;99.90;;;;;;5053125;28;20044;-67
2022/11/18 06:43:40;;;;;;;25.75;13.35;;;7.30;99.90;;;;;;5052678;28;20129;-67
2022/11/18 06:48:59;;;;;;;26.65;13.23;;;7.30;99.90;;;;;;5052927;28;20072;-67
2022/11/18 06:51:25;;;;;;;25.40;13.13;;;7.30;99.90;;;;;;5051894;28;20537;-67
2022/11/18 06:53:51;;;;;;;25.73;12.55;;;7.30;99.90;;;;;;5052443;28;20041;-67
2022/11/18 06:56:19;;;;;;;23.63;12.73;;;7.30;99.90;;;;;;5051408;28;20044;-67
2022/11/18 06:58:44;;;;;;;24.40;11.35;;;7.30;99.90;;;;;;5052810;28;20048;-67
2022/11/18 07:01:17;;;;;;;20.83;11.48;;;7.30;99.90;;;;;;5052636;28;20049;-67
2022/11/18 07:03:45;;;;;;;19.27;10.43;;;7.20;99.90;;;;;;5051199;28;20045;-67
2022/11/18 07:06:12;;;;;;;20.67;11.02;;;7.20;99.90;;;;;;5051537;28;20091;-67
2022/11/18 07:08:39;;;;;;;18.58;10.40;;;7.20;99.90;;;;;;5052407;28;20037;-67
2022/11/18 07:11:08;;;;;;;20.98;10.20;;;7.30;99.90;;;;;;5052400;28;20045;-67
2022/11/18 07:13:34;;;;;;;19.67;8.95;;;7.30;99.90;;;;;;5052466;28;20045;-67
2022/11/18 07:16:14;;;;;;;17.65;9.10;;;7.20;99.90;;;;;;5052225;28;20378;-67
2022/11/18 07:18:41;;;;;;;20.85;10.02;;;7.20;99.90;;;;;;5052426;28;20041;-67
2022/11/18 07:21:08;;;;;;;19.55;10.25;;;7.30;99.90;;;;;;5052415;28;20083;-67
2022/11/18 07:23:34;;;;;;;17.70;9.82;;;7.30;99.90;;;;;;5048883;28;20037;-68
2022/11/18 07:26:00;;;;;;;18.17;9.93;;;7.20;99.90;;;;;;5049990;28;20041;-67
2022/11/18 07:28:28;;;;;;;20.13;10.82;;;7.30;99.90;;;;;;5050500;28;20179;-67
2022/11/18 07:31:04;;;;;;;20.10;10.43;;;7.30;99.90;;;;;;5049038;28;20037;-68
2022/11/18 07:33:31;;;;;;;26.33;11.65;;;7.20;99.90;;;;;;5049657;28;20041;-67
2022/11/18 07:36:03;;;;;;;24.33;11.10;;;7.20;99.90;;;;;;5051337;28;20037;-67
2022/11/18 07:38:29;;;;;;;;;;;7.10;99.90;;;;;;5050097;28;20072;-67
2022/11/18 07:40:55;;;;;;;23.85;11.75;;;7.20;99.90;;;;;;5050741;28;19917;-67
2022/11/18 07:43:20;;;;;;;23.55;11.15;;;7.20;99.90;;;;;;5049544;28;20512;-67
2022/11/18 07:45:46;;;;;;;22.75;11.02;;;7.20;99.90;;;;;;5048524;28;20041;-67
2022/11/18 07:48:11;;;;;;;20.80;10.75;;;7.10;99.90;;;;;;5049252;28;20029;-67
2022/11/18 07:50:37;;;;;;;21.30;11.23;;;7.20;99.90;;;;;;5049935;28;20033;-67
2022/11/18 07:53:02;;;;;;;23.95;11.23;;;7.20;99.90;;;;;;5051959;28;20086;-67
2022/11/18 07:55:28;;;;;;;23.45;11.20;;;7.20;99.90;;;;;;5050124;28;20121;-67
2022/11/18 07:57:55;;;;;;;20.95;11.48;;;7.20;99.90;;;;;;5051890;28;20185;-67
2022/11/18 08:00:27;;;;;;;22.80;10.80;;;7.20;99.90;;;;;;5088492;27;20385;-67
2022/11/18 08:02:52;;;;;;;23.70;10.50;;;7.20;99.90;;;;;;5088019;28;20170;-67
2022/11/18 08:05:18;;;;;;;28.67;10.77;;;7.20;99.90;;;;;;5086689;28;20658;-67
2022/11/18 08:07:44;;;;;;;21.35;10.75;;;7.20;99.90;;;;;;5088045;28;20044;-67
2022/11/18 08:10:09;;;;;;;23.02;10.80;;;7.20;99.90;;;;;;5088202;28;20135;-67
2022/11/18 08:12:35;;;;;;;23.50;11.07;;;7.30;99.90;;;;;;5088386;28;20074;-67
2022/11/18 08:15:00;;;;;;;16.30;9.38;;;7.30;99.90;;;;;;5087762;28;20048;-67
2022/11/18 08:17:26;;;;;;;19.42;10.50;;;7.30;99.90;;;;;;5088288;28;20047;-67
2022/11/18 08:19:51;;;;;;;22.63;9.98;;;7.30;99.90;;;;;;5088195;28;20040;-67
2022/11/18 08:22:19;;;;;;;22.73;9.55;;;7.20;99.90;;;;;;5088035;28;20040;-67
2022/11/18 08:24:46;;;;;;;20.05;9.50;;;7.20;99.90;;;;;;5086648;28;20036;-67
2022/11/18 08:27:12;;;;;;;21.92;9.68;;;7.20;99.90;;;;;;5087965;28;20107;-67
2022/11/18 08:29:37;;;;;;;17.77;9.13;;;7.20;99.90;;;;;;5069833;28;20568;-67
2022/11/18 08:32:05;;;;;;;17.08;9.30;;;7.20;99.90;;;;;;5087640;28;20044;-72
2022/11/18 08:34:31;;;;;;;19.23;8.93;;;7.20;99.90;;;;;;5067393;28;20555;-67
2022/11/18 08:36:56;;;;;;;18.40;9.57;;;7.30;99.90;;;;;;5052516;28;20047;-67
2022/11/18 08:39:22;;;;;;;18.02;9.13;;;7.30;99.90;;;;;;5087319;28;20656;-67
2022/11/18 08:41:47;;;;;;;16.65;8.35;;;7.20;99.90;;;;;;5087352;28;20032;-67
2022/11/18 08:44:14;;;;;;;17.63;8.68;;;7.20;99.90;;;;;;5087238;28;20033;-67
2022/11/18 08:46:41;;;;;;;17.42;10.35;;;7.20;99.90;;;;;;5080906;28;20708;-67
2022/11/18 08:49:06;;;;;;;15.77;8.57;;;7.20;99.90;;;;;;5075981;28;20044;-67
2022/11/18 08:51:32;;;;;;;21.10;9.52;;;7.10;99.90;;;;;;5087262;28;20036;-67
2022/11/18 08:53:58;;;;;;;16.10;8.85;;;7.10;99.90;;;;;;5085342;28;20040;-67
2022/11/18 08:56:24;;;;;;;20.48;10.65;;;7.10;99.90;;;;;;5085872;28;20051;-67
2022/11/18 08:58:50;;;;;;;19.52;10.73;;;7.20;99.90;;;;;;5083964;28;20407;-67
2022/11/18 09:01:16;;;;;;;19.42;10.15;;;7.20;99.90;;;;;;5086079;28;20083;-67
2022/11/18 09:03:42;;;;;;;19.10;10.60;;;7.20;99.90;;;;;;5077498;28;20064;-68
2022/11/18 09:06:13;;;;;;;19.55;10.18;;;7.20;99.90;;;;;;5066736;28;20068;-67
2022/11/18 09:08:39;;;;;;;17.80;9.52;;;7.10;99.90;;;;;;5085600;28;20044;-67
2022/11/18 09:11:10;;;;;;;20.35;8.80;;;7.20;99.90;;;;;;5076966;28;20087;-67
2022/11/18 09:13:35;;;;;;;13.85;8.52;;;7.20;99.90;;;;;;5073104;28;20047;-70
2022/11/18 09:16:02;;;;;;;14.52;8.13;;;7.10;99.90;;;;;;5072953;28;20044;-67
2022/11/18 09:18:29;;;;;;;15.45;9.40;;;7.10;99.90;;;;;;5072974;28;20041;-67
2022/11/18 09:20:59;;;;;;;20.63;9.70;;;7.10;99.90;;;;;;5072967;28;20040;-67
2022/11/18 09:23:25;;;;;;;17.75;9.88;;;7.20;99.90;;;;;;5072706;28;20441;-67
2022/11/18 09:26:15;;;;;;;17.42;9.95;;;7.20;99.90;;;;;;5072456;28;20097;-67
2022/11/18 09:28:41;;;;;;;14.18;8.70;;;7.20;99.90;;;;;;5072936;28;20119;-67
2022/11/18 09:31:12;;;;;;;16.17;8.68;;;7.10;99.90;;;;;;5072739;28;20463;-67
2022/11/18 09:33:38;;;;;;;18.10;9.20;;;7.10;99.90;;;;;;5072739;28;20036;-71
2022/11/18 09:36:10;;;;;;;13.88;8.88;;;7.30;99.90;;;;;;5072415;28;20055;-72
2022/11/18 09:38:36;;;;;;;15.98;9.20;;;7.10;99.90;;;;;;5071405;28;20098;-71
2022/11/18 09:41:41;;;;;;;18.25;9.40;;;7.10;99.90;;;;;;5071535;28;20079;-71
2022/11/18 09:44:24;;;;;;;17.88;9.50;;;7.10;99.90;;;;;;5072762;28;20064;-72
2022/11/18 09:47:02;;;;;;;17.05;8.75;;;7.10;99.90;;;;;;5070800;28;20052;-71
2022/11/18 09:49:35;;;;;;;13.85;8.30;;;7.10;99.90;;;;;;5072577;28;20072;-71
2022/11/18 09:52:04;;;;;;;17.20;9.20;;;7.10;99.90;;;;;;5054763;28;20382;-72
2022/11/18 09:54:33;;;;;;;15.75;8.63;;;7.00;99.90;;;;;;5070881;28;20053;-71
2022/11/18 09:56:59;;;;;;;19.35;8.93;;;7.10;99.90;;;;;;5072424;28;20044;-71
2022/11/18 09:59:29;;;;;;;17.63;9.50;;;7.00;99.90;;;;;;5070901;28;20051;-71
2022/11/18 10:02:01;;;;;;;14.57;8.35;;;6.90;99.90;;;;;;5071121;28;20067;-71
2022/11/18 10:04:27;;;;;;;16.65;7.60;;;7.00;99.90;;;;;;5071011;28;20068;-71
2022/11/18 10:06:53;;;;;;;14.10;9.13;;;7.00;99.90;;;;;;5070882;28;20044;-71
2022/11/18 10:09:37;;;;;;;16.80;8.00;;;6.90;99.90;;;;;;5071145;28;20540;-71
2022/11/18 10:12:34;;;;;;;15.43;7.70;;;7.00;99.90;;;;;;5054012;28;20049;-71
2022/11/18 10:15:31;;;;;;;16.17;8.95;;;7.00;99.90;;;;;;5071482;28;20129;-71
2022/11/18 10:18:20;;;;;;;13.98;8.60;;;7.00;99.90;;;;;;5067660;28;20056;-72
2022/11/18 10:21:24;;;;;;;16.60;8.25;;;7.00;99.90;;;;;;5070742;28;20054;-73
2022/11/18 10:24:26;;;;;;;16.08;9.13;;;7.00;99.90;;;;;;5070095;28;20059;-71
2022/11/18 10:26:57;;;;;;;23.33;9.75;;;7.00;99.90;;;;;;5068370;28;20521;-71
2022/11/18 10:29:22;;;;;;;16.52;8.90;;;7.00;99.90;;;;;;5071104;28;20052;-71
2022/11/18 10:32:07;;;;;;;16.98;9.35;;;7.00;99.90;;;;;;5053735;28;20047;-70
2022/11/18 10:34:43;;;;;;;20.02;9.75;;;7.00;99.90;;;;;;5071666;28;20032;-71
2022/11/18 10:37:58;;;;;;;19.50;8.77;;;7.00;99.90;;;;;;5071360;28;20049;-71
2022/11/18 10:40:25;;;;;;;16.77;9.70;;;7.00;99.90;;;;;;5049203;28;20088;-67
2022/11/18 10:42:51;;;;;;;20.20;9.70;;;7.00;99.90;;;;;;5032115;28;20067;-67
2022/11/18 10:45:24;;;;;;;18.77;8.98;;;7.00;99.90;;;;;;5048662;28;20044;-67
2022/11/18 10:48:13;;;;;;;16.42;8.90;;;7.00;99.90;;;;;;5048492;28;20072;-67
2022/11/18 10:50:44;;;;;;;16.85;9.30;;;7.00;99.90;;;;;;5048883;28;20049;-67
2022/11/18 10:53:43;;;;;;;18.23;9.90;;;7.00;99.90;;;;;;5048377;28;20048;-67
2022/11/18 10:56:12;;;;;;;17.27;9.68;;;7.00;99.90;;;;;;5016140;28;20072;-67
2022/11/18 10:58:44;;;;;;;21.83;10.50;;;6.90;99.90;;;;;;5048622;28;20049;-67
2022/11/18 11:01:22;;;;;;;17.52;8.63;;;7.00;99.90;;;;;;5049058;28;20290;-67
2022/11/18 11:04:04;;;;;;;17.63;9.80;;;6.90;99.90;;;;;;5048952;28;20044;-67
2022/11/18 11:06:39;;;;;;;19.40;8.32;;;6.90;99.90;;;;;;5032618;28;20080;-68
2022/11/18 11:09:06;;;;;;;14.77;8.27;;;6.90;99.90;;;;;;5031878;28;20079;-67
2022/11/18 11:11:36;;;;;;;15.80;8.38;;;6.80;99.90;;;;;;5031757;28;20307;-67
2022/11/18 11:14:29;;;;;;;16.83;8.98;;;6.80;99.90;;;;;;5046463;28;20048;-67
2022/11/18 11:17:01;;;;;;;15.90;8.73;;;6.80;99.90;;;;;;5070960;28;20041;-67
2022/11/18 11:19:50;;;;;;;13.37;7.57;;;6.80;99.90;;;;;;5069651;28;20044;-67
2022/11/18 11:22:16;;;;;;;15.73;8.38;;;6.70;99.90;;;;;;5053066;28;20040;-73
2022/11/18 11:24:43;;;;;;;17.77;8.13;;;6.80;99.90;;;;;;5052726;28;20040;-72
2022/11/18 11:27:40;;;;;;;14.40;8.13;;;7.00;99.90;;;;;;5070518;28;20051;-67
2022/11/18 11:30:12;;;;;;;13.05;6.85;;;7.00;99.90;;;;;;5070671;28;20050;-67
2022/11/18 11:32:52;;;;;;;9.07;6.03;;;6.90;99.90;;;;;;5062140;28;20099;-67
2022/11/18 11:35:20;;;;;;;10.55;6.20;;;6.80;99.90;;;;;;5054659;28;20467;-68
2022/11/18 11:38:18;;;;;;;11.15;6.65;;;6.80;99.90;;;;;;5058066;28;20033;-68
2022/11/18 11:41:01;;;;;;;12.98;6.30;;;6.80;99.90;;;;;;5031931;28;20052;-70
2022/11/18 11:43:26;;;;;;;;;;;6.80;99.90;;;;;;5060274;28;20044;-69
2022/11/18 11:46:29;;;;;;;11.55;5.43;;;6.70;99.90;;;;;;5061113;28;19920;-67
2022/11/18 11:49:16;;;;;;;12.75;6.72;;;6.80;99.90;;;;;;5059043;28;20089;-67
2022/11/18 11:51:51;;;;;;;12.35;7.13;;;6.80;99.90;;;;;;5058474;28;20044;-66
2022/11/18 11:54:28;;;;;;;10.18;5.80;;;6.80;99.90;;;;;;5058716;28;20772;-67
2022/11/18 11:57:13;;;;;;;9.43;5.47;;;6.80;99.90;;;;;;5058832;28;20036;-67
2022/11/18 12:00:00;;;;;;;11.27;5.85;;;6.60;99.90;;;;;;5068967;28;20056;-67
2022/11/18 12:02:50;;;;;;;12.15;6.63;;;6.60;99.90;;;;;;5070355;28;20439;-67
2022/11/18 12:05:32;;;;;;;12.00;6.53;;;6.60;99.90;;;;;;5068633;28;20037;-67
2022/11/18 12:08:05;;;;;;;12.52;6.60;;;6.60;99.90;;;;;;5070272;28;20045;-69
2022/11/18 12:10:45;;;;;;;;;;;6.60;99.90;;;;;;5069473;28;20052;-68
2022/11/18 12:13:32;;;;;;;11.68;7.03;;;6.60;99.90;;;;;;5068249;28;19920;-69
2022/11/18 12:16:20;;;;;;;12.60;6.30;;;6.70;99.90;;;;;;5056349;28;20053;-67
2022/11/18 12:18:51;;;;;;;13.32;7.80;;;6.60;99.90;;;;;;5060009;28;20044;-67
2022/11/18 12:21:44;;;;;;;11.75;6.20;;;6.60;99.90;;;;;;5060223;28;20037;-67
2022/11/18 12:24:16;;;;;;;17.38;6.53;;;6.60;99.90;;;;;;5059234;28;20037;-67
2022/11/18 12:26:42;;;;;;;14.48;6.93;;;6.50;99.90;;;;;;5060804;28;20036;-67
2022/11/18 12:29:17;;;;;;;15.60;7.38;;;6.50;99.90;;;;;;5058049;28;20073;-67
2022/11/18 12:31:43;;;;;;;13.85;6.93;;;6.60;99.90;;;;;;5058599;28;20072;-67
2022/11/18 12:34:30;;;;;;;14.25;7.28;;;6.60;99.90;;;;;;5059737;28;20072;-67
2022/11/18 12:36:55;;;;;;;13.30;6.65;;;6.60;99.90;;;;;;5060311;28;20493;-67
2022/11/18 12:39:24;;;;;;;13.30;7.68;;;6.60;99.90;;;;;;5058735;28;20106;-67
2022/11/18 12:44:49;;;;;;;16.08;7.88;;;6.50;99.90;;;;;;5067050;28;20455;-67
2022/11/18 12:47:15;;;;;;;14.32;7.78;;;6.40;99.90;;;;;;5068748;28;20382;-67
2022/11/18 12:49:44;;;;;;;16.13;7.90;;;6.40;99.90;;;;;;5073633;28;20033;-67
2022/11/18 12:52:28;;;;;;;16.98;8.02;;;6.50;99.90;;;;;;5072262;28;20044;-67
2022/11/18 12:55:00;;;;;;;17.00;7.57;;;6.40;99.90;;;;;;5072741;28;20531;-67
2022/11/18 12:57:30;;;;;;;20.45;8.75;;;6.40;99.90;;;;;;5073856;28;20044;-67
2022/11/18 12:59:56;;;;;;;19.20;9.15;;;6.10;99.90;;;;;;5072014;28;20048;-67
2022/11/18 13:02:26;;;;;;;18.90;9.40;;;6.10;99.90;;;;;;5073607;28;20489;-67
2022/11/18 13:05:08;;;;;;;18.08;8.18;;;6.20;99.90;;;;;;5053277;28;20044;-67
2022/11/18 13:10:30;;;;;;;18.10;7.88;;;6.20;99.90;;;;;;5053208;28;20409;-68
2022/11/18 13:12:56;;;;;;;18.25;8.73;;;6.00;99.90;;;;;;5053247;28;20048;-67
2022/11/18 13:18:17;;;;;;;19.10;9.48;;;6.20;99.90;;;;;;5068266;28;20393;-67
2022/11/18 13:20:56;;;;;;;18.52;9.48;;;6.30;99.90;;;;;;5053119;28;20044;-66
2022/11/18 13:26:20;;;;;;;18.40;9.43;;;6.20;99.90;;;;;;5065427;28;20044;-67